Aranspass, Texas
Current Conditions -  °F | °C
As of 7:55 AM on Wednesday 28 Jan 2015 (Local Time) from KTFP Reporting Station
Haze Haze  
Wind Chill: 48°   Ceiling: Unl
Heat Index: 50°   Visibility: 4mi
Dew Point: 48°   Wind: 5mph
Humidity: 95%   Direction: 180°S
Pressure: 30.17"   Gusts: NA
Location:  27.9399°N, 97.1805°W
Report Text: KTFP 281355Z AUTO 18004KT 4SM BR CLR 10/09 A3017 RMK AO2 T00990091
Loading
Personal Weather Stations






























Interactive Weather Map New forecast layout! Learn more

10-Day Weather Forecast

Advertisements
Track Severe Weather on mobile